createdAt,value
2018-06-29T00:01:57.178Z,1010.33
2018-06-29T00:02:35.888Z,1010.3
2018-06-29T00:03:16.289Z,1010.32
2018-06-29T00:03:56.791Z,1010.32
2018-06-29T00:04:37.121Z,1010.32
2018-06-29T00:05:17.906Z,1010.34
2018-06-29T00:05:58.165Z,1010.37
2018-06-29T00:06:38.814Z,1010.36
2018-06-29T00:07:19.206Z,1010.37
2018-06-29T00:07:59.840Z,1010.33
2018-06-29T00:08:40.100Z,1010.36
2018-06-29T00:09:20.476Z,1010.33
2018-06-29T00:10:00.971Z,1010.35
2018-06-29T00:10:41.864Z,1010.33
2018-06-29T00:11:22.224Z,1010.32
2018-06-29T00:14:54.063Z,1010.34
2018-06-29T00:15:34.537Z,1010.36
2018-06-29T00:16:14.957Z,1010.35
2018-06-29T00:16:55.555Z,1010.34
2018-06-29T00:17:36.001Z,1010.31
2018-06-29T00:18:16.373Z,1010.34
2018-06-29T00:18:56.826Z,1010.28
2018-06-29T00:19:37.236Z,1010.29
2018-06-29T00:20:18.305Z,1010.29
2018-06-29T00:20:58.692Z,1010.3
2018-06-29T00:21:39.162Z,1010.29
2018-06-29T00:22:20.326Z,1010.28
2018-06-29T00:23:00.824Z,1010.27
2018-06-29T00:23:41.173Z,1010.29
2018-06-29T00:24:21.598Z,1010.24
2018-06-29T00:25:02.287Z,1010.27
2018-06-29T00:25:42.483Z,1010.3
2018-06-29T00:26:22.870Z,1010.26
2018-06-29T00:27:03.855Z,1010.24
2018-06-29T00:27:44.648Z,1010.24
2018-06-29T00:29:42.198Z,1010.25
2018-06-29T00:30:22.703Z,1010.26
2018-06-29T00:31:03.114Z,1010.19
2018-06-29T00:31:44.078Z,1010.22
2018-06-29T00:32:24.625Z,1010.22
2018-06-29T00:33:04.933Z,1010.2
2018-06-29T00:33:46.390Z,1010.22
2018-06-29T00:34:26.943Z,1010.2
2018-06-29T00:35:07.265Z,1010.21
2018-06-29T00:35:47.695Z,1010.19
2018-06-29T00:38:00.534Z,1010.18
2018-06-29T00:38:41.561Z,1010.18
2018-06-29T00:39:21.827Z,1010.2
2018-06-29T00:40:02.231Z,1010.16
2018-06-29T00:40:42.687Z,1010.13
2018-06-29T00:41:23.254Z,1010.15
2018-06-29T00:42:03.514Z,1010.16
2018-06-29T00:42:44.052Z,1010.14
2018-06-29T00:43:24.318Z,1010.19
2018-06-29T00:44:04.843Z,1010.19
2018-06-29T00:44:45.298Z,1010.2
2018-06-29T00:45:25.628Z,1010.2
2018-06-29T00:46:08.624Z,1010.2
2018-06-29T00:46:49.222Z,1010.17
2018-06-29T00:51:49.850Z,1010.13
2018-06-29T00:52:30.349Z,1010.11
2018-06-29T00:53:10.715Z,1010.07
2018-06-29T00:53:51.118Z,1010.07
2018-06-29T00:54:31.490Z,1010.03
2018-06-29T00:55:11.973Z,1010.09
2018-06-29T00:55:52.363Z,1010.1
2018-06-29T00:56:32.898Z,1010.13
2018-06-29T00:57:13.235Z,1010.12
2018-06-29T01:01:13.044Z,1010.11
2018-06-29T01:01:53.426Z,1010.1
2018-06-29T01:02:33.866Z,1010.15
2018-06-29T01:03:15.287Z,1010.14
2018-06-29T01:03:55.764Z,1010.09
2018-06-29T01:04:36.167Z,1010.1
2018-06-29T01:05:16.648Z,1010.16
2018-06-29T01:24:18.464Z,1010.21
2018-06-29T01:24:58.899Z,1010.2
2018-06-29T01:26:57.395Z,1010.23
2018-06-29T01:27:37.798Z,1010.24
2018-06-29T01:28:18.120Z,1010.22
2018-06-29T01:28:58.516Z,1010.26
2018-06-29T01:29:38.977Z,1010.28
2018-06-29T01:30:19.511Z,1010.25
2018-06-29T01:30:59.896Z,1010.29
2018-06-29T01:31:40.286Z,1010.28
2018-06-29T01:32:20.681Z,1010.28
2018-06-29T01:33:01.212Z,1010.27
2018-06-29T01:33:41.557Z,1010.24
2018-06-29T01:34:21.945Z,1010.25
2018-06-29T01:35:02.405Z,1010.28
2018-06-29T01:35:43.170Z,1010.26
2018-06-29T01:36:23.542Z,1010.28
2018-06-29T01:37:04.023Z,1010.31
2018-06-29T01:37:44.399Z,1010.31
2018-06-29T01:38:24.760Z,1010.33
2018-06-29T01:39:05.210Z,1010.31
2018-06-29T01:39:45.636Z,1010.32
2018-06-29T01:40:26.097Z,1010.34
2018-06-29T01:41:06.487Z,1010.31
2018-06-29T01:41:46.978Z,1010.35
2018-06-29T01:42:27.350Z,1010.35
2018-06-29T01:44:55.460Z,1010.33
2018-06-29T01:45:35.737Z,1010.32
2018-06-29T01:46:16.684Z,1010.35
2018-06-29T01:46:57.020Z,1010.36
2018-06-29T01:47:37.465Z,1010.36
2018-06-29T01:53:29.084Z,1010.32
2018-06-29T01:54:09.527Z,1010.28
2018-06-29T01:56:07.206Z,1010.26
2018-06-29T01:56:47.401Z,1010.3
2018-06-29T01:57:27.814Z,1010.25
2018-06-29T01:58:08.233Z,1010.29
2018-06-29T01:58:48.861Z,1010.27
2018-06-29T01:59:29.142Z,1010.25
2018-06-29T02:00:09.534Z,1010.29
2018-06-29T02:00:49.943Z,1010.3
2018-06-29T02:01:30.412Z,1010.29
2018-06-29T02:02:10.855Z,1010.27
2018-06-29T02:02:51.407Z,1010.25
2018-06-29T02:03:31.793Z,1010.31
2018-06-29T02:04:12.266Z,1010.3
2018-06-29T02:04:52.827Z,1010.32
2018-06-29T02:05:33.218Z,1010.26
2018-06-29T02:06:13.521Z,1010.26
2018-06-29T02:06:53.954Z,1010.3
2018-06-29T02:07:34.415Z,1010.22
2018-06-29T02:08:14.885Z,1010.23
2018-06-29T02:08:55.396Z,1010.22
2018-06-29T02:09:35.734Z,1010.2
2018-06-29T02:10:16.245Z,1010.18
2018-06-29T02:10:56.570Z,1010.16
2018-06-29T02:11:36.945Z,1010.14
2018-06-29T02:12:17.335Z,1010.14
2018-06-29T02:12:57.746Z,1010.11
2018-06-29T02:13:38.136Z,1010.1
2018-06-29T02:14:18.579Z,1010.09
2018-06-29T02:22:03.845Z,1010.02
2018-06-29T02:22:46.040Z,1010.03
2018-06-29T02:23:24.769Z,1010.05
2018-06-29T02:24:05.082Z,1010.01
2018-06-29T02:24:45.545Z,1010.04
2018-06-29T02:25:25.889Z,1010.02
2018-06-29T02:26:06.270Z,1010.03
2018-06-29T02:26:46.681Z,1010.04
2018-06-29T02:27:27.093Z,1010
2018-06-29T02:28:07.608Z,1010
2018-06-29T02:28:47.900Z,1010
2018-06-29T02:29:28.341Z,1010.03
2018-06-29T02:30:08.775Z,1010
2018-06-29T02:30:49.305Z,1010.02
2018-06-29T02:31:29.660Z,1009.99
2018-06-29T02:32:10.015Z,1010.04
2018-06-29T02:32:50.438Z,1010.04
2018-06-29T02:33:30.865Z,1009.98
2018-06-29T02:35:58.756Z,1010.01
2018-06-29T02:36:39.150Z,1009.99
2018-06-29T02:37:19.483Z,1009.97
2018-06-29T02:37:59.877Z,1009.98
2018-06-29T02:38:40.268Z,1009.98
2018-06-29T02:39:20.729Z,1009.98
2018-06-29T02:41:53.044Z,1009.98
2018-06-29T02:51:38.040Z,1010.04
2018-06-29T02:54:32.063Z,1010.05
2018-06-29T02:55:15.534Z,1010.07
2018-06-29T02:55:55.940Z,1010.09
2018-06-29T02:56:36.371Z,1010.09
2018-06-29T02:57:16.786Z,1010.09
2018-06-29T02:57:57.151Z,1010.07
2018-06-29T03:37:09.954Z,1009.98
2018-06-29T03:37:50.385Z,1009.98
2018-06-29T03:38:30.745Z,1009.98
2018-06-29T03:39:11.208Z,1010.02
2018-06-29T03:39:51.561Z,1010
2018-06-29T03:40:32.148Z,1010.03
2018-06-29T03:41:12.491Z,1009.98
2018-06-29T03:41:52.953Z,1009.96
2018-06-29T03:42:33.337Z,1010.01
2018-06-29T03:43:13.857Z,1010.01
2018-06-29T03:43:54.140Z,1009.99
2018-06-29T03:44:34.577Z,1009.97
2018-06-29T03:45:15.025Z,1010.02
2018-06-29T03:45:55.386Z,1010
2018-06-29T03:46:35.841Z,1010.02
2018-06-29T03:47:16.214Z,1010.02
2018-06-29T03:47:56.650Z,1010.07
2018-06-29T03:48:37.055Z,1010.05
2018-06-29T03:49:17.540Z,1010.02
2018-06-29T03:49:58.681Z,1010.04
2018-06-29T03:50:39.032Z,1010.02
2018-06-29T03:51:19.487Z,1009.96
2018-06-29T03:52:01.585Z,1009.97
2018-06-29T03:52:42.037Z,1009.97
2018-06-29T03:53:22.399Z,1009.95
2018-06-29T03:54:02.807Z,1009.94
2018-06-29T03:54:43.210Z,1009.94
2018-06-29T03:55:23.698Z,1009.95
2018-06-29T03:56:04.076Z,1009.95
2018-06-29T03:56:44.534Z,1009.92
2018-06-29T03:57:24.881Z,1009.95
2018-06-29T03:58:05.362Z,1009.94
2018-06-29T04:42:26.845Z,1009.97
2018-06-29T04:43:07.077Z,1009.96
2018-06-29T04:43:48.168Z,1010.03
2018-06-29T04:44:28.702Z,1010.01
2018-06-29T04:45:08.946Z,1010
2018-06-29T04:45:49.479Z,1010.01
2018-06-29T04:46:29.923Z,1010.02
2018-06-29T04:47:10.818Z,1010.01
2018-06-29T04:47:51.205Z,1010
2018-06-29T04:48:31.625Z,1010
2018-06-29T04:49:12.081Z,1010.02
2018-06-29T04:49:53.010Z,1009.96
2018-06-29T04:50:33.444Z,1009.93
2018-06-29T04:51:15.249Z,1009.95
2018-06-29T04:51:57.093Z,1009.94
2018-06-29T04:52:40.187Z,1009.97
2018-06-29T04:53:22.092Z,1009.96
2018-06-29T04:54:02.442Z,1009.93
2018-06-29T10:42:44.349Z,1009.02
2018-06-29T10:43:25.526Z,1009
2018-06-29T10:44:06.050Z,1008.99
2018-06-29T10:44:47.167Z,1008.98
2018-06-29T10:45:27.842Z,1009
2018-06-29T10:46:08.202Z,1008.99
2018-06-29T10:46:48.713Z,1008.98
2018-06-29T10:47:29.900Z,1008.97
2018-06-29T10:48:10.331Z,1008.91
2018-06-29T10:48:50.791Z,1008.89
2018-06-29T10:49:31.157Z,1008.9
2018-06-29T10:50:11.616Z,1008.96
2018-06-29T10:50:52.817Z,1008.93
2018-06-29T10:51:33.350Z,1008.99
2018-06-29T10:53:46.525Z,1008.98
2018-06-29T10:54:26.855Z,1008.99
2018-06-29T10:55:07.238Z,1009.05
2018-06-29T10:55:47.727Z,1009.01
2018-06-29T10:56:28.249Z,1008.98
2018-06-29T10:57:08.917Z,1008.96
2018-06-29T10:57:49.516Z,1008.96
2018-06-29T10:58:33.216Z,1008.91
2018-06-29T10:59:13.610Z,1008.9
2018-06-29T10:59:54.241Z,1008.88
2018-06-29T11:00:34.712Z,1008.86
2018-06-29T11:01:15.105Z,1008.88
2018-06-29T11:01:55.504Z,1008.9
2018-06-29T11:02:36.766Z,1008.88
2018-06-29T11:03:17.188Z,1008.89
2018-06-29T11:03:57.559Z,1008.85
2018-06-29T11:04:38.027Z,1008.83
2018-06-29T11:05:18.614Z,1008.88
2018-06-29T11:05:59.003Z,1008.84
2018-06-29T11:06:39.481Z,1008.84
2018-06-29T11:07:20.479Z,1008.82
2018-06-29T11:08:00.945Z,1008.82
2018-06-29T11:08:41.334Z,1008.79
2018-06-29T11:09:21.739Z,1008.79
2018-06-29T11:10:02.189Z,1008.81
2018-06-29T11:10:42.643Z,1008.77
2018-06-29T11:11:23.091Z,1008.72
2018-06-29T11:13:21.114Z,1008.75
2018-06-29T11:14:01.531Z,1008.74
2018-06-29T11:14:41.867Z,1008.74
2018-06-29T11:15:22.379Z,1008.72
2018-06-29T11:16:02.777Z,1008.7
2018-06-29T11:16:43.211Z,1008.68
2018-06-29T11:17:23.730Z,1008.71
2018-06-29T11:18:04.279Z,1008.67
2018-06-29T11:18:44.788Z,1008.7
2018-06-29T11:19:25.164Z,1008.73
2018-06-29T11:20:05.567Z,1008.76
2018-06-29T11:20:45.977Z,1008.7
2018-06-29T11:21:26.376Z,1008.74
2018-06-29T11:22:06.773Z,1008.75
2018-06-29T11:22:47.175Z,1008.7
2018-06-29T11:23:27.608Z,1008.69
2018-06-29T11:24:07.994Z,1008.66
2018-06-29T11:24:48.415Z,1008.67
2018-06-29T11:25:28.799Z,1008.67
2018-06-29T11:26:09.221Z,1008.62
2018-06-29T11:26:49.672Z,1008.64
2018-06-29T11:27:30.016Z,1008.62
2018-06-29T11:28:10.575Z,1008.65
2018-06-29T11:28:51.104Z,1008.62
2018-06-29T11:29:31.482Z,1008.63
2018-06-29T11:33:19.501Z,1008.54
2018-06-29T11:33:59.960Z,1008.58
2018-06-29T11:34:40.309Z,1008.55
2018-06-29T11:35:21.493Z,1008.55
2018-06-29T11:36:02.177Z,1008.57
2018-06-29T11:36:43.757Z,1008.58
2018-06-29T11:37:24.121Z,1008.5
2018-06-29T11:38:04.664Z,1008.51
2018-06-29T11:38:45.333Z,1008.52
2018-06-29T11:40:43.911Z,1008.55
2018-06-29T11:41:24.377Z,1008.53
2018-06-29T11:42:04.824Z,1008.51
2018-06-29T11:42:45.221Z,1008.54
2018-06-29T11:43:25.690Z,1008.51
2018-06-29T11:44:06.077Z,1008.55
2018-06-29T11:44:46.484Z,1008.53
2018-06-29T11:45:26.940Z,1008.52
2018-06-29T11:46:07.404Z,1008.52
2018-06-29T11:46:47.754Z,1008.48
2018-06-29T11:47:29.038Z,1008.46
2018-06-29T11:48:09.459Z,1008.5
2018-06-29T11:48:49.895Z,1008.52
2018-06-29T11:49:30.592Z,1008.46
2018-06-29T11:50:11.043Z,1008.46
2018-06-29T11:50:51.493Z,1008.41
2018-06-29T11:51:31.975Z,1008.44
2018-06-29T11:52:14.016Z,1008.39
2018-06-29T11:52:54.420Z,1008.42
2018-06-29T11:53:34.880Z,1008.35
2018-06-29T11:54:16.355Z,1008.4
2018-06-29T11:54:56.820Z,1008.36
2018-06-29T11:55:37.235Z,1008.37
2018-06-29T11:56:17.676Z,1008.33
2018-06-29T11:56:58.096Z,1008.36
2018-06-29T11:57:38.490Z,1008.34
2018-06-29T11:58:21.873Z,1008.36
2018-06-29T11:59:02.300Z,1008.35
2018-06-29T11:59:42.736Z,1008.33
2018-06-29T12:00:24.195Z,1008.35
2018-06-29T12:01:04.919Z,1008.32
2018-06-29T12:01:45.717Z,1008.31
2018-06-29T12:02:26.150Z,1008.31
2018-06-29T12:03:06.593Z,1008.33
2018-06-29T12:03:47.054Z,1008.34
2018-06-29T12:04:28.241Z,1008.31
2018-06-29T12:05:08.696Z,1008.26
2018-06-29T12:05:49.318Z,1008.29
2018-06-29T12:06:29.798Z,1008.28
2018-06-29T12:07:10.316Z,1008.27
2018-06-29T12:07:50.774Z,1008.24
2018-06-29T12:08:31.247Z,1008.23
2018-06-29T12:09:11.777Z,1008.25
2018-06-29T12:09:52.023Z,1008.26
2018-06-29T12:10:33.191Z,1008.24
2018-06-29T12:11:13.603Z,1008.19
2018-06-29T12:11:54.047Z,1008.17
2018-06-29T12:12:34.450Z,1008.18
2018-06-29T12:13:16.125Z,1008.17
2018-06-29T12:13:56.537Z,1008.2
2018-06-29T12:14:37.004Z,1008.19
2018-06-29T12:15:17.447Z,1008.24
2018-06-29T12:15:57.904Z,1008.14
2018-06-29T12:16:38.386Z,1008.17
2018-06-29T12:17:18.833Z,1008.14
2018-06-29T12:17:59.240Z,1008.14
2018-06-29T12:18:39.824Z,1008.09
2018-06-29T12:19:20.232Z,1008.14
2018-06-29T12:20:01.643Z,1008.11
2018-06-29T12:20:42.068Z,1008.11
2018-06-29T12:21:22.711Z,1008.04
2018-06-29T12:22:03.273Z,1008.06
2018-06-29T12:22:43.864Z,1008.04
2018-06-29T12:23:24.376Z,1008.02
2018-06-29T12:24:04.747Z,1008.05
2018-06-29T12:24:45.322Z,1007.99
2018-06-29T12:25:25.646Z,1007.97
2018-06-29T12:26:06.287Z,1007.99
2018-06-29T12:26:46.732Z,1007.98
2018-06-29T12:27:27.113Z,1008
2018-06-29T12:28:07.674Z,1007.96
2018-06-29T12:28:48.072Z,1007.96
2018-06-29T12:29:28.490Z,1007.98
2018-06-29T12:30:08.926Z,1007.99
2018-06-29T12:32:27.430Z,1007.96
2018-06-29T12:33:07.898Z,1008
2018-06-29T12:33:48.318Z,1008.02
2018-06-29T12:34:28.780Z,1007.93
2018-06-29T12:35:10.062Z,1008
2018-06-29T12:35:51.194Z,1007.91
2018-06-29T12:36:31.573Z,1007.94
2018-06-29T12:37:12.042Z,1007.91
2018-06-29T12:37:53.011Z,1007.87
2018-06-29T12:38:33.390Z,1007.85
2018-06-29T12:39:13.800Z,1007.84
2018-06-29T12:39:54.254Z,1007.94
2018-06-29T12:40:34.634Z,1007.89
2018-06-29T12:41:16.020Z,1007.9
2018-06-29T12:41:56.440Z,1007.89
2018-06-29T12:42:36.944Z,1007.89
2018-06-29T12:43:17.684Z,1007.9
2018-06-29T12:43:58.477Z,1007.85
2018-06-29T12:44:39.495Z,1007.82
2018-06-29T12:45:20.475Z,1007.82
2018-06-29T12:46:01.024Z,1007.77
2018-06-29T12:46:42.025Z,1007.78
2018-06-29T12:48:40.908Z,1007.78
2018-06-29T12:50:59.013Z,1007.79
2018-06-29T12:51:39.423Z,1007.78
2018-06-29T12:52:19.868Z,1007.75
2018-06-29T12:53:00.248Z,1007.8
2018-06-29T12:55:02.295Z,1007.72
2018-06-29T12:55:40.502Z,1007.72
2018-06-29T12:56:20.950Z,1007.69
2018-06-29T12:57:01.403Z,1007.68
2018-06-29T12:57:41.941Z,1007.71
2018-06-29T12:58:22.351Z,1007.6
2018-06-29T12:59:02.860Z,1007.64
2018-06-29T12:59:43.415Z,1007.62
2018-06-29T13:00:23.772Z,1007.68
2018-06-29T13:01:04.183Z,1007.64
2018-06-29T13:01:44.779Z,1007.64
2018-06-29T13:02:25.293Z,1007.69
2018-06-29T13:03:05.822Z,1007.63
2018-06-29T13:05:24.595Z,1007.61
2018-06-29T13:06:08.828Z,1007.59
2018-06-29T13:06:49.296Z,1007.59
2018-06-29T13:07:29.684Z,1007.57
2018-06-29T13:08:10.240Z,1007.54
2018-06-29T13:08:50.654Z,1007.57
2018-06-29T13:09:31.028Z,1007.58
2018-06-29T13:10:11.508Z,1007.57
2018-06-29T13:12:26.818Z,1007.55
2018-06-29T13:13:07.169Z,1007.52
2018-06-29T13:13:47.593Z,1007.55
2018-06-29T13:14:28.015Z,1007.56
2018-06-29T13:15:08.510Z,1007.54
2018-06-29T13:17:22.746Z,1007.58
2018-06-29T13:18:03.741Z,1007.51
2018-06-29T13:18:44.205Z,1007.51
2018-06-29T13:19:24.944Z,1007.54
2018-06-29T13:20:05.394Z,1007.55
2018-06-29T13:20:46.127Z,1007.55
2018-06-29T13:21:26.571Z,1007.52
2018-06-29T13:22:07.121Z,1007.42
2018-06-29T13:22:47.667Z,1007.49
2018-06-29T13:23:27.995Z,1007.51
2018-06-29T13:24:08.556Z,1007.49
2018-06-29T13:24:49.195Z,1007.49
2018-06-29T13:25:29.594Z,1007.54
2018-06-29T13:26:10.020Z,1007.53
2018-06-29T13:26:50.630Z,1007.53
2018-06-29T13:27:31.059Z,1007.47
2018-06-29T13:28:11.484Z,1007.49
2018-06-29T13:28:52.128Z,1007.42
2018-06-29T13:29:32.511Z,1007.46
2018-06-29T13:30:14.922Z,1007.47
2018-06-29T13:30:55.316Z,1007.45
2018-06-29T13:31:35.925Z,1007.45
2018-06-29T13:32:16.341Z,1007.41
2018-06-29T13:32:56.780Z,1007.37
2018-06-29T13:33:37.200Z,1007.36
2018-06-29T13:34:17.563Z,1007.36
2018-06-29T13:34:58.134Z,1007.41
2018-06-29T13:35:38.445Z,1007.44
2018-06-29T13:36:18.852Z,1007.38
2018-06-29T13:36:59.253Z,1007.39
2018-06-29T13:37:39.667Z,1007.46
2018-06-29T13:38:20.993Z,1007.37
2018-06-29T13:39:01.405Z,1007.37
2018-06-29T13:39:42.154Z,1007.39
2018-06-29T13:41:36.913Z,1007.39
2018-06-29T13:42:17.338Z,1007.41
2018-06-29T13:42:57.771Z,1007.39
2018-06-29T13:43:38.313Z,1007.35
2018-06-29T13:44:18.729Z,1007.35
2018-06-29T13:44:59.195Z,1007.34
2018-06-29T13:45:39.582Z,1007.33
2018-06-29T13:46:19.996Z,1007.33
2018-06-29T13:47:00.403Z,1007.29
2018-06-29T13:47:40.944Z,1007.34
2018-06-29T13:48:21.279Z,1007.28
2018-06-29T13:49:01.810Z,1007.31
2018-06-29T13:49:42.197Z,1007.31
2018-06-29T13:50:22.654Z,1007.26
2018-06-29T13:51:03.177Z,1007.28
2018-06-29T13:51:43.808Z,1007.25
2018-06-29T13:52:24.233Z,1007.24
2018-06-29T13:53:04.635Z,1007.26
2018-06-29T13:53:45.129Z,1007.28
2018-06-29T13:54:25.770Z,1007.21
2018-06-29T13:55:07.035Z,1007.24
2018-06-29T13:55:47.458Z,1007.23
2018-06-29T13:56:27.932Z,1007.2
2018-06-29T13:57:08.391Z,1007.25
2018-06-29T14:01:40.221Z,1007.18
2018-06-29T14:02:20.632Z,1007.15
2018-06-29T14:03:01.165Z,1007.17
2018-06-29T14:03:41.580Z,1007.18
2018-06-29T14:04:21.991Z,1007.18
2018-06-29T14:05:02.375Z,1007.13
2018-06-29T14:05:42.804Z,1007.16
2018-06-29T14:06:23.261Z,1007.18
2018-06-29T14:07:03.698Z,1007.19
2018-06-29T14:07:44.129Z,1007.19
2018-06-29T14:08:24.528Z,1007.21
2018-06-29T14:09:04.943Z,1007.14
2018-06-29T14:11:19.265Z,1007.15
2018-06-29T14:11:59.649Z,1007.12
2018-06-29T14:12:40.043Z,1007.13
2018-06-29T14:13:20.418Z,1007.08
2018-06-29T14:14:00.850Z,1007.1
2018-06-29T14:14:41.388Z,1007.1
2018-06-29T14:15:21.773Z,1007.09
2018-06-29T14:16:02.185Z,1007.07
2018-06-29T14:31:01.189Z,1006.98
2018-06-29T14:31:41.335Z,1006.99
2018-06-29T14:32:21.770Z,1006.94
2018-06-29T14:33:02.169Z,1006.98
2018-06-29T14:33:42.612Z,1006.98
2018-06-29T14:34:23.046Z,1006.98
2018-06-29T14:35:03.516Z,1006.95
2018-06-29T14:35:43.947Z,1006.94
2018-06-29T14:36:24.342Z,1006.92
2018-06-29T14:37:04.716Z,1006.97
2018-06-29T14:37:45.116Z,1006.96
2018-06-29T14:38:25.568Z,1006.89
2018-06-29T14:39:06.013Z,1006.94
2018-06-29T14:39:46.391Z,1006.89
2018-06-29T14:40:26.791Z,1006.9
2018-06-29T14:41:07.286Z,1006.93
2018-06-29T14:41:47.627Z,1006.88
2018-06-29T14:42:28.033Z,1006.86
2018-06-29T14:43:08.542Z,1006.83
2018-06-29T14:43:48.825Z,1006.88
2018-06-29T14:44:29.300Z,1006.84
2018-06-29T14:51:24.436Z,1006.81
2018-06-29T14:52:04.899Z,1006.75
2018-06-29T14:52:45.589Z,1006.8
2018-06-29T14:53:26.012Z,1006.76
2018-06-29T14:54:06.416Z,1006.77
2018-06-29T14:54:46.878Z,1006.78
2018-06-29T14:55:27.582Z,1006.74
2018-06-29T14:56:08.170Z,1006.75
2018-06-29T14:56:48.574Z,1006.74
2018-06-29T14:57:29.138Z,1006.75
2018-06-29T14:58:09.538Z,1006.72
2018-06-29T14:58:51.002Z,1006.73
2018-06-29T14:59:30.957Z,1006.72
2018-06-29T15:00:11.517Z,1006.71
2018-06-29T15:00:51.874Z,1006.77
2018-06-29T15:01:32.310Z,1006.72
2018-06-29T15:02:12.758Z,1006.68
2018-06-29T15:02:53.182Z,1006.72
2018-06-29T15:03:33.615Z,1006.69
2018-06-29T15:04:14.229Z,1006.64
2018-06-29T15:04:54.682Z,1006.67
2018-06-29T15:07:15.703Z,1006.57
2018-06-29T15:07:53.759Z,1006.53
2018-06-29T15:08:34.149Z,1006.53
2018-06-29T15:09:14.607Z,1006.54
2018-06-29T15:09:55.102Z,1006.52
2018-06-29T15:10:36.126Z,1006.52
2018-06-29T15:11:16.651Z,1006.48
2018-06-29T15:11:57.939Z,1006.47
2018-06-29T15:12:38.451Z,1006.48
2018-06-29T15:13:18.872Z,1006.46
2018-06-29T15:13:59.403Z,1006.48
2018-06-29T15:14:39.791Z,1006.43
2018-06-29T15:15:20.252Z,1006.44
2018-06-29T15:16:01.677Z,1006.45
2018-06-29T15:16:42.104Z,1006.41
2018-06-29T15:17:22.505Z,1006.42
2018-06-29T15:19:17.263Z,1006.4
2018-06-29T15:19:57.146Z,1006.42
2018-06-29T15:20:37.575Z,1006.41
2018-06-29T15:21:17.949Z,1006.41
2018-06-29T15:21:58.591Z,1006.42
2018-06-29T15:22:38.932Z,1006.41
2018-06-29T15:23:19.290Z,1006.43
2018-06-29T15:23:59.754Z,1006.4
2018-06-29T15:24:40.223Z,1006.43
2018-06-29T15:25:20.693Z,1006.37
2018-06-29T15:26:01.025Z,1006.38
2018-06-29T15:26:42.078Z,1006.39
2018-06-29T15:27:22.485Z,1006.35
2018-06-29T15:28:03.006Z,1006.36
2018-06-29T15:28:43.829Z,1006.35
2018-06-29T15:29:24.010Z,1006.31
2018-06-29T15:30:04.401Z,1006.31
2018-06-29T15:32:38.411Z,1006.35
2018-06-29T15:33:19.359Z,1006.37
2018-06-29T15:33:59.708Z,1006.35
2018-06-29T15:34:40.159Z,1006.35
2018-06-29T15:35:20.463Z,1006.34
2018-06-29T15:36:00.931Z,1006.32
2018-06-29T15:36:41.336Z,1006.33
2018-06-29T15:37:21.723Z,1006.29
2018-06-29T15:38:02.249Z,1006.3
2018-06-29T15:38:42.573Z,1006.31
2018-06-29T15:39:23.025Z,1006.33
2018-06-29T15:40:03.431Z,1006.28
2018-06-29T15:40:43.842Z,1006.31
2018-06-29T15:41:24.328Z,1006.3
2018-06-29T15:42:04.682Z,1006.26
2018-06-29T15:42:45.140Z,1006.23
2018-06-29T15:44:59.418Z,1006.26
2018-06-29T15:45:39.815Z,1006.26
2018-06-29T15:46:20.229Z,1006.21
2018-06-29T15:47:00.838Z,1006.25
2018-06-29T15:47:42.616Z,1006.26
2018-06-29T15:48:23.006Z,1006.28
2018-06-29T15:49:03.471Z,1006.29
2018-06-29T15:49:43.800Z,1006.26
2018-06-29T15:50:24.737Z,1006.21
2018-06-29T15:51:05.145Z,1006.28
2018-06-29T15:54:38.503Z,1006.25
2018-06-29T15:55:17.317Z,1006.2
2018-06-29T15:55:57.482Z,1006.29
2018-06-29T15:56:38.235Z,1006.22
2018-06-29T15:57:18.363Z,1006.23
2018-06-29T15:57:58.791Z,1006.24
2018-06-29T15:58:39.275Z,1006.2
2018-06-29T15:59:19.702Z,1006.21
2018-06-29T16:00:00.158Z,1006.17
2018-06-29T16:00:40.810Z,1006.24
2018-06-29T16:01:21.451Z,1006.17
2018-06-29T16:02:01.718Z,1006.17
2018-06-29T16:02:42.538Z,1006.14
2018-06-29T16:03:22.760Z,1006.16
2018-06-29T16:04:03.145Z,1006.12
2018-06-29T16:04:43.753Z,1006.13
2018-06-29T16:05:25.036Z,1006.15
2018-06-29T16:06:05.501Z,1006.14
2018-06-29T16:43:42.559Z,1005.99
2018-06-29T16:44:23.238Z,1005.97
2018-06-29T16:45:03.694Z,1005.96
2018-06-29T16:45:44.092Z,1005.98
2018-06-29T16:46:24.479Z,1005.99
2018-06-29T16:47:04.892Z,1005.95
2018-06-29T16:47:45.402Z,1005.98
2018-06-29T16:48:25.809Z,1006.01
2018-06-29T16:50:24.453Z,1005.95
2018-06-29T16:51:04.983Z,1006.01
2018-06-29T16:51:45.426Z,1005.97
2018-06-29T16:52:26.857Z,1005.95
2018-06-29T16:53:07.143Z,1005.98
2018-06-29T16:53:47.554Z,1006.01
2018-06-29T16:54:28.021Z,1006.02
2018-06-29T16:57:59.275Z,1006.03
2018-06-29T16:58:39.630Z,1006.05
2018-06-29T16:59:20.076Z,1006.03
2018-06-29T17:00:00.431Z,1006.03
2018-06-29T17:00:41.034Z,1006.07
2018-06-29T17:01:21.607Z,1006.02
2018-06-29T17:02:03.131Z,1006.06
2018-06-29T17:02:43.489Z,1006.01
2018-06-29T17:03:23.958Z,1005.96
2018-06-29T17:04:04.377Z,1005.95
2018-06-29T17:04:45.452Z,1005.94
2018-06-29T17:05:26.141Z,1005.98
2018-06-29T17:06:06.429Z,1005.98
2018-06-29T17:06:46.871Z,1005.98
2018-06-29T17:07:27.333Z,1005.99
2018-06-29T17:08:08.084Z,1005.98
2018-06-29T17:08:48.315Z,1006
2018-06-29T17:09:28.822Z,1005.98
2018-06-29T17:10:09.247Z,1006.02
2018-06-29T17:10:49.581Z,1005.97
2018-06-29T17:11:30.062Z,1006
2018-06-29T17:12:10.516Z,1005.98
2018-06-29T17:12:50.935Z,1006.02
2018-06-29T17:13:31.546Z,1005.97
2018-06-29T17:14:11.962Z,1006
2018-06-29T17:14:52.413Z,1005.96
2018-06-29T17:15:32.825Z,1005.98
2018-06-29T17:16:13.216Z,1005.98
2018-06-29T17:16:53.662Z,1005.93
2018-06-29T17:17:34.068Z,1006
2018-06-29T17:18:14.561Z,1005.95
2018-06-29T17:18:55.159Z,1005.93
2018-06-29T17:19:35.472Z,1005.95
2018-06-29T17:20:16.137Z,1006
2018-06-29T17:20:56.438Z,1006
2018-06-29T17:21:36.872Z,1005.96
2018-06-29T17:22:18.078Z,1005.95
2018-06-29T17:22:58.336Z,1005.94
2018-06-29T17:23:39.052Z,1005.99
2018-06-29T17:24:19.684Z,1005.94
2018-06-29T17:25:00.138Z,1005.95
2018-06-29T17:25:40.610Z,1005.94
2018-06-29T17:26:20.936Z,1005.93
2018-06-29T17:27:01.580Z,1005.92
2018-06-29T17:27:41.931Z,1005.95
2018-06-29T17:28:22.341Z,1005.93
2018-06-29T17:29:02.943Z,1005.92
2018-06-29T17:29:43.193Z,1005.95
2018-06-29T17:30:23.731Z,1005.94
2018-06-29T17:31:05.042Z,1005.96
2018-06-29T17:31:45.443Z,1005.93
2018-06-29T17:32:26.608Z,1005.93
2018-06-29T17:33:06.951Z,1005.94
2018-06-29T17:33:47.765Z,1005.95
2018-06-29T17:34:27.805Z,1005.93
2018-06-29T17:36:46.531Z,1005.9
2018-06-29T17:37:26.770Z,1005.88
2018-06-29T17:38:07.143Z,1005.93
2018-06-29T17:38:47.540Z,1005.94
2018-06-29T17:39:27.990Z,1005.95
2018-06-29T17:40:08.447Z,1005.89
2018-06-29T17:40:48.879Z,1005.96
2018-06-29T17:41:29.220Z,1005.96
2018-06-29T17:42:09.631Z,1005.94
2018-06-29T17:42:50.000Z,1005.94
2018-06-29T17:43:30.404Z,1005.96
2018-06-29T17:44:11.488Z,1005.93
2018-06-29T17:44:51.926Z,1005.95
2018-06-29T17:45:33.357Z,1005.95
2018-06-29T17:46:13.966Z,1005.94
2018-06-29T17:46:54.215Z,1005.94
2018-06-29T17:47:35.537Z,1005.93
2018-06-29T17:48:16.745Z,1005.91
2018-06-29T17:48:57.097Z,1005.95
2018-06-29T17:49:37.496Z,1005.95
2018-06-29T17:50:18.358Z,1005.92
2018-06-29T17:50:59.559Z,1005.9
2018-06-29T17:51:40.952Z,1005.95
2018-06-29T17:52:21.419Z,1005.92
2018-06-29T17:53:01.805Z,1005.92
2018-06-29T17:53:42.268Z,1005.9
2018-06-29T17:54:24.420Z,1005.87
2018-06-29T17:55:04.883Z,1005.89
2018-06-29T17:55:45.288Z,1005.87
2018-06-29T17:56:25.652Z,1005.84
2018-06-29T17:58:18.448Z,1005.88
2018-06-29T17:58:58.637Z,1005.87
2018-06-29T17:59:39.856Z,1005.87
2018-06-29T18:00:20.816Z,1005.88
2018-06-29T18:01:01.089Z,1005.88
2018-06-29T18:01:41.779Z,1005.9
2018-06-29T18:02:22.151Z,1005.91
2018-06-29T18:03:02.567Z,1005.89
2018-06-29T18:03:43.050Z,1005.88
2018-06-29T18:04:24.498Z,1005.85
2018-06-29T18:05:04.937Z,1005.92
2018-06-29T18:05:45.423Z,1005.92
2018-06-29T18:06:25.901Z,1005.92